createdAt,value
2018-02-22T00:04:52.373Z,45.00
2018-02-22T00:10:02.697Z,51.22
2018-02-22T00:12:33.867Z,39.33
2018-02-22T00:15:12.391Z,40.85
2018-02-22T00:17:45.264Z,44.00
2018-02-22T00:20:15.055Z,43.28
2018-02-22T00:22:49.306Z,42.58
2018-02-22T00:25:19.614Z,38.92
2018-02-22T00:30:32.888Z,40.15
2018-02-22T00:33:06.459Z,42.53
2018-02-22T00:35:41.182Z,41.42
2018-02-22T00:38:11.012Z,50.50
2018-02-22T00:40:47.333Z,46.22
2018-02-22T00:43:17.972Z,39.60
2018-02-22T00:45:54.546Z,44.03
2018-02-22T00:48:30.036Z,45.65
2018-02-22T00:50:59.596Z,52.50
2018-02-22T00:53:29.795Z,47.17
2018-02-22T00:58:56.653Z,45.55
2018-02-22T01:12:08.176Z,42.62
2018-02-22T01:14:40.955Z,44.85
2018-02-22T01:17:21.408Z,43.55
2018-02-22T01:19:56.512Z,46.72
2018-02-22T01:22:38.567Z,41.95
2018-02-22T01:27:53.894Z,45.63
2018-02-22T01:30:27.517Z,49.67
2018-02-22T01:49:53.245Z,42.08
2018-02-22T01:55:02.855Z,40.83
2018-02-22T01:57:37.724Z,38.35
2018-02-22T02:00:13.267Z,36.65
2018-02-22T04:30:14.563Z,31.60
2018-02-22T04:33:10.278Z,31.48
2018-02-22T04:45:01.560Z,36.08
2018-02-22T05:02:00.562Z,28.42
2018-02-22T05:07:36.932Z,25.62
2018-02-22T05:10:17.075Z,31.20
2018-02-22T05:15:48.372Z,26.15
2018-02-22T05:20:50.840Z,31.37
2018-02-22T05:23:19.525Z,32.13
2018-02-22T05:25:51.301Z,33.55
2018-02-22T05:28:30.605Z,28.30
2018-02-22T05:30:59.477Z,32.30
2018-02-22T05:33:27.928Z,34.25
2018-02-22T05:35:56.796Z,28.27
2018-02-22T05:38:26.362Z,34.20
2018-02-22T05:40:54.534Z,32.05
2018-02-22T05:43:22.743Z,34.70
2018-02-22T05:45:51.872Z,34.50
2018-02-22T05:48:21.005Z,38.50
2018-02-22T05:50:49.256Z,34.60
2018-02-22T05:53:20.957Z,38.40
2018-02-22T05:55:56.891Z,32.63
2018-02-22T06:01:10.325Z,33.60
2018-02-22T06:03:39.518Z,34.40
2018-02-22T06:06:08.580Z,24.33
2018-02-22T06:08:37.025Z,34.17
2018-02-22T06:11:06.348Z,28.45
2018-02-22T06:13:36.082Z,38.88
2018-02-22T06:16:05.886Z,38.65
2018-02-22T06:18:34.163Z,36.35
2018-02-22T06:21:03.922Z,40.55
2018-02-22T06:23:33.927Z,34.67
2018-02-22T06:26:03.977Z,36.45
2018-02-22T06:28:32.173Z,37.20
2018-02-22T06:31:00.918Z,38.58
2018-02-22T06:33:29.128Z,44.78
2018-02-22T06:36:03.734Z,35.28
2018-02-22T06:38:33.377Z,39.25
2018-02-22T06:41:01.657Z,36.10
2018-02-22T06:43:29.845Z,45.42
2018-02-22T06:46:01.074Z,33.22
2018-02-22T06:48:30.768Z,36.05
2018-02-22T06:51:00.017Z,42.50
2018-02-22T06:53:28.183Z,48.00
2018-02-22T06:55:56.435Z,37.88
2018-02-22T06:58:25.012Z,37.22
2018-02-22T07:00:53.262Z,38.30
2018-02-22T07:03:22.214Z,36.80
2018-02-22T07:05:50.994Z,33.90
2018-02-22T07:08:19.210Z,33.95
2018-02-22T07:10:48.156Z,42.42
2018-02-22T07:13:18.218Z,34.88
2018-02-22T07:15:52.860Z,37.83
2018-02-22T07:18:22.081Z,41.65
2018-02-22T07:20:56.682Z,43.72
2018-02-22T07:23:25.532Z,29.85
2018-02-22T07:25:54.929Z,37.17
2018-02-22T07:28:23.947Z,44.15
2018-02-22T07:30:52.122Z,38.58
2018-02-22T07:33:20.330Z,40.17
2018-02-22T07:35:49.529Z,36.85
2018-02-22T07:38:18.678Z,43.75
2018-02-22T07:40:47.706Z,36.83
2018-02-22T07:43:17.397Z,39.15
2018-02-22T07:45:47.253Z,35.90
2018-02-22T07:48:15.445Z,37.25
2018-02-22T07:50:44.323Z,38.03
2018-02-22T07:53:12.996Z,39.22
2018-02-22T07:55:42.333Z,44.22
2018-02-22T07:58:10.512Z,45.80
2018-02-22T08:00:38.677Z,38.80
2018-02-22T08:03:07.602Z,24.95
2018-02-22T08:05:36.729Z,39.97
2018-02-22T08:08:06.221Z,36.05
2018-02-22T08:10:35.167Z,36.15
2018-02-22T08:13:04.243Z,41.40
2018-02-22T08:15:32.881Z,37.08
2018-02-22T08:18:01.057Z,41.83
2018-02-22T08:20:30.001Z,37.35
2018-02-22T08:22:58.159Z,38.03
2018-02-22T08:25:27.361Z,42.45
2018-02-22T08:27:56.716Z,42.45
2018-02-22T08:30:25.682Z,44.65
2018-02-22T08:32:54.691Z,44.00
2018-02-22T08:35:22.925Z,44.83
2018-02-22T08:37:51.099Z,37.88
2018-02-22T08:40:19.284Z,28.92
2018-02-22T08:42:47.520Z,37.63
2018-02-22T08:45:15.882Z,40.17
2018-02-22T08:47:44.835Z,35.30
2018-02-22T08:50:13.338Z,38.95
2018-02-22T08:52:41.525Z,41.92
2018-02-22T08:55:09.746Z,46.80
2018-02-22T08:57:41.911Z,35.45
2018-02-22T09:00:10.832Z,35.35
2018-02-22T09:02:39.011Z,43.70
2018-02-22T09:05:07.759Z,32.42
2018-02-22T09:07:37.722Z,39.65
2018-02-22T09:10:06.347Z,39.78
2018-02-22T09:12:34.564Z,35.13
2018-02-22T09:15:03.728Z,40.67
2018-02-22T09:17:32.869Z,40.17
2018-02-22T09:20:01.089Z,36.03
2018-02-22T09:22:30.039Z,37.33
2018-02-22T09:24:58.294Z,33.17
2018-02-22T09:27:26.452Z,32.78
2018-02-22T09:29:55.204Z,36.10
2018-02-22T09:32:25.589Z,34.92
2018-02-22T09:34:56.566Z,35.95
2018-02-22T09:37:25.920Z,38.33
2018-02-22T09:39:55.565Z,33.75
2018-02-22T09:42:26.484Z,32.60
2018-02-22T09:44:54.777Z,32.78
2018-02-22T09:47:27.374Z,35.33
2018-02-22T09:49:55.556Z,34.40
2018-02-22T09:52:23.719Z,35.45
2018-02-22T09:54:51.942Z,43.50
2018-02-22T09:57:22.861Z,33.22
2018-02-22T09:59:52.364Z,29.17
2018-02-22T10:02:24.709Z,28.00
2018-02-22T10:04:53.914Z,35.95
2018-02-22T10:07:23.510Z,28.83
2018-02-22T10:09:52.766Z,28.50
2018-02-22T10:12:22.526Z,28.42
2018-02-22T10:14:52.672Z,28.42
2018-02-22T10:17:21.206Z,24.80
2018-02-22T10:19:49.389Z,28.50
2018-02-22T10:22:17.566Z,24.85
2018-02-22T10:24:45.791Z,26.37
2018-02-22T10:27:13.952Z,28.60
2018-02-22T10:29:42.131Z,28.60
2018-02-22T10:32:10.290Z,25.48
2018-02-22T10:34:38.478Z,29.37
2018-02-22T10:37:06.652Z,51.60
2018-02-22T10:39:34.804Z,28.85
2018-02-22T10:42:02.955Z,29.23
2018-02-22T10:44:31.906Z,26.80
2018-02-22T10:47:00.088Z,23.83
2018-02-22T10:49:28.314Z,25.27
2018-02-22T10:51:56.465Z,27.75
2018-02-22T10:54:24.642Z,31.42
2018-02-22T10:56:52.817Z,28.92
2018-02-22T10:59:20.969Z,22.00
2018-02-22T11:01:54.711Z,24.17
2018-02-22T11:04:23.642Z,28.83
2018-02-22T11:06:51.828Z,25.35
2018-02-22T11:09:19.983Z,28.05
2018-02-22T11:11:48.170Z,29.98
2018-02-22T11:14:16.349Z,26.92
2018-02-22T11:16:44.506Z,26.48
2018-02-22T11:19:12.674Z,25.20
2018-02-22T11:21:40.846Z,24.98
2018-02-22T11:24:09.020Z,21.67
2018-02-22T11:26:37.165Z,33.00
2018-02-22T11:29:06.106Z,24.87
2018-02-22T11:31:34.367Z,28.20
2018-02-22T11:34:02.537Z,29.05
2018-02-22T11:36:32.779Z,26.75
2018-02-22T11:39:00.958Z,22.13
2018-02-22T11:41:30.116Z,23.60
2018-02-22T11:43:58.886Z,27.10
2018-02-22T11:46:27.046Z,33.53
2018-02-22T11:48:55.217Z,27.50
2018-02-22T11:51:23.395Z,25.20
2018-02-22T11:53:51.549Z,26.25
2018-02-22T11:56:21.379Z,32.40
2018-02-22T11:58:49.580Z,28.73
2018-02-22T12:01:18.518Z,29.60
2018-02-22T12:03:48.130Z,24.55
2018-02-22T12:06:16.377Z,24.77
2018-02-22T12:08:44.538Z,22.13
2018-02-22T12:11:13.473Z,28.40
2018-02-22T12:13:41.685Z,20.83
2018-02-22T12:16:09.905Z,24.50
2018-02-22T12:18:38.525Z,21.50
2018-02-22T12:21:07.688Z,28.77
2018-02-22T12:23:35.856Z,20.70
2018-02-22T12:26:04.088Z,20.88
2018-02-22T12:28:32.254Z,27.52
2018-02-22T12:31:00.467Z,22.62
2018-02-22T12:33:28.617Z,24.20
2018-02-22T12:36:04.775Z,32.08
2018-02-22T12:38:33.241Z,24.87
2018-02-22T12:41:01.958Z,22.02
2018-02-22T12:43:30.180Z,26.12
2018-02-22T12:45:58.450Z,27.90
2018-02-22T12:48:26.622Z,22.35
2018-02-22T12:50:54.806Z,26.65
2018-02-22T12:53:22.977Z,26.73
2018-02-22T12:55:52.150Z,25.08
2018-02-22T12:58:21.277Z,19.80
2018-02-22T13:00:50.898Z,27.92
2018-02-22T13:03:20.809Z,21.75
2018-02-22T13:05:49.965Z,19.92
2018-02-22T13:08:18.135Z,24.67
2018-02-22T13:10:46.395Z,21.85
2018-02-22T13:13:15.324Z,22.77
2018-02-22T13:15:43.724Z,20.05
2018-02-22T13:18:11.934Z,21.27
2018-02-22T13:20:41.174Z,21.77
2018-02-22T13:23:09.404Z,18.35
2018-02-22T13:25:37.641Z,22.00
2018-02-22T13:28:05.805Z,18.00
2018-02-22T13:30:33.969Z,20.15
2018-02-22T13:33:13.993Z,21.25
2018-02-22T13:35:46.843Z,18.23
2018-02-22T13:38:28.490Z,18.37
2018-02-22T13:40:56.767Z,22.70
2018-02-22T13:43:25.862Z,20.23
2018-02-22T13:45:54.145Z,21.48
2018-02-22T13:48:22.311Z,20.95
2018-02-22T13:51:02.382Z,21.40
2018-02-22T13:53:30.540Z,19.23
2018-02-22T13:56:00.236Z,20.65
2018-02-22T13:58:28.407Z,17.17
2018-02-22T14:01:08.570Z,20.88
2018-02-22T14:03:37.625Z,16.33
2018-02-22T14:06:09.633Z,23.38
2018-02-22T14:08:44.663Z,18.92
2018-02-22T14:11:13.009Z,18.48
2018-02-22T14:13:41.956Z,22.30
2018-02-22T14:16:11.073Z,19.33
2018-02-22T14:18:40.038Z,19.65
2018-02-22T14:21:08.196Z,20.85
2018-02-22T14:23:36.377Z,18.87
2018-02-22T14:26:05.387Z,19.08
2018-02-22T14:28:34.969Z,19.12
2018-02-22T14:31:03.145Z,16.77
2018-02-22T14:33:31.304Z,23.30
2018-02-22T14:36:02.633Z,20.12
2018-02-22T14:38:30.793Z,23.90
2018-02-22T14:40:59.028Z,24.67
2018-02-22T14:43:27.189Z,17.30
2018-02-22T14:45:55.420Z,22.02
2018-02-22T14:48:24.630Z,21.20
2018-02-22T14:50:52.814Z,21.95
2018-02-22T14:53:21.056Z,20.37
2018-02-22T14:55:49.335Z,16.90
2018-02-22T14:58:17.559Z,23.10
2018-02-22T15:00:52.030Z,21.75
2018-02-22T15:03:20.212Z,23.85
2018-02-22T15:05:48.401Z,23.12
2018-02-22T15:08:19.409Z,24.35
2018-02-22T15:10:48.999Z,21.85
2018-02-22T15:13:17.246Z,19.23
2018-02-22T15:15:45.547Z,21.30
2018-02-22T15:18:13.840Z,22.58
2018-02-22T15:20:42.105Z,20.48
2018-02-22T15:23:10.265Z,20.58
2018-02-22T15:25:39.479Z,23.80
2018-02-22T15:28:07.636Z,17.25
2018-02-22T15:30:35.853Z,24.98
2018-02-22T15:33:04.347Z,25.05
2018-02-22T15:35:32.574Z,20.95
2018-02-22T15:38:00.801Z,22.33
2018-02-22T15:40:28.959Z,21.27
2018-02-22T15:42:57.151Z,16.92
2018-02-22T15:45:29.825Z,22.87
2018-02-22T15:47:58.168Z,22.08
2018-02-22T15:50:26.988Z,16.25
2018-02-22T15:52:55.159Z,20.23
2018-02-22T15:55:26.562Z,18.02
2018-02-22T15:57:54.744Z,25.92
2018-02-22T16:00:26.772Z,20.80
2018-02-22T16:02:55.714Z,20.10
2018-02-22T16:05:24.711Z,24.75
2018-02-22T16:07:53.816Z,16.10
2018-02-22T16:10:21.980Z,25.60
2018-02-22T16:12:50.138Z,22.70
2018-02-22T16:15:20.219Z,18.20
2018-02-22T16:17:48.378Z,16.17
2018-02-22T16:20:16.559Z,20.83
2018-02-22T16:22:44.716Z,15.90
2018-02-22T16:25:14.891Z,21.92
2018-02-22T16:27:43.041Z,19.75
2018-02-22T16:30:11.205Z,21.70
2018-02-22T16:32:39.387Z,18.05
2018-02-22T16:35:08.222Z,22.00
2018-02-22T16:37:37.306Z,19.70
2018-02-22T16:40:05.494Z,21.48
2018-02-22T16:42:33.666Z,18.87
2018-02-22T16:45:01.924Z,16.05
2018-02-22T16:47:30.125Z,19.70
2018-02-22T16:49:58.287Z,13.82
2018-02-22T16:52:26.449Z,24.55
2018-02-22T16:54:55.663Z,19.00
2018-02-22T16:57:23.819Z,25.98
2018-02-22T16:59:51.967Z,14.75
2018-02-22T17:02:21.158Z,14.85
2018-02-22T17:04:50.082Z,19.12
2018-02-22T17:07:18.254Z,18.60
2018-02-22T17:09:46.694Z,14.85
2018-02-22T17:12:16.153Z,22.70
2018-02-22T17:14:45.338Z,17.60
2018-02-22T17:17:16.919Z,11.88
2018-02-22T17:19:45.798Z,19.77
2018-02-22T17:22:13.953Z,15.45
2018-02-22T17:24:43.205Z,17.27
2018-02-22T17:27:16.986Z,20.00
2018-02-22T17:29:51.205Z,16.30
2018-02-22T17:32:19.935Z,17.80
2018-02-22T17:34:48.134Z,16.80
2018-02-22T17:37:17.218Z,16.87
2018-02-22T17:40:00.268Z,18.15
2018-02-22T17:42:35.684Z,21.42
2018-02-22T17:45:05.187Z,19.70
2018-02-22T17:47:38.389Z,20.27
2018-02-22T17:50:06.558Z,18.62
2018-02-22T17:52:36.150Z,32.20
2018-02-22T17:55:06.438Z,21.95
2018-02-22T17:57:34.635Z,35.00
2018-02-22T18:00:03.094Z,30.65
2018-02-22T18:02:31.262Z,24.45
2018-02-22T18:05:01.105Z,24.45
2018-02-22T18:07:32.515Z,21.15
2018-02-22T18:10:03.553Z,27.52
2018-02-22T18:12:31.749Z,28.42
2018-02-22T18:15:01.969Z,32.08
2018-02-22T18:17:30.723Z,30.83
2018-02-22T18:20:00.665Z,28.45
2018-02-22T18:22:28.856Z,22.92
2018-02-22T18:24:57.088Z,19.02
2018-02-22T18:27:25.253Z,21.83
2018-02-22T18:29:54.190Z,22.05
2018-02-22T18:32:24.807Z,17.98
2018-02-22T18:34:53.054Z,21.70
2018-02-22T18:37:26.959Z,15.70
2018-02-22T18:39:55.876Z,16.87
2018-02-22T18:42:24.691Z,25.35
2018-02-22T18:44:58.561Z,16.67
2018-02-22T18:47:29.924Z,17.20
2018-02-22T18:49:58.085Z,18.75
2018-02-22T18:52:27.182Z,17.55
2018-02-22T18:54:55.471Z,15.82
2018-02-22T18:57:23.645Z,15.50
2018-02-22T18:59:51.822Z,15.00
2018-02-22T19:02:21.590Z,16.77
2018-02-22T19:04:50.617Z,15.65
2018-02-22T19:07:19.573Z,18.67
2018-02-22T19:09:47.738Z,17.23
2018-02-22T19:12:15.901Z,19.12
2018-02-22T19:14:44.976Z,14.85
2018-02-22T19:17:13.489Z,22.50
2018-02-22T19:19:41.660Z,19.08
2018-02-22T19:22:09.825Z,20.90
2018-02-22T19:24:38.036Z,15.75
2018-02-22T19:27:06.192Z,16.05
2018-02-22T19:29:35.138Z,13.68
2018-02-22T19:32:03.368Z,17.27
2018-02-22T19:34:32.394Z,10.20
2018-02-22T19:37:00.569Z,12.32
2018-02-22T19:39:28.740Z,16.52
2018-02-22T19:41:56.941Z,14.77
2018-02-22T19:44:25.217Z,12.95
2018-02-22T19:46:54.023Z,22.35
2018-02-22T19:49:22.233Z,12.20
2018-02-22T19:51:50.373Z,12.73
2018-02-22T19:54:18.585Z,14.05
2018-02-22T19:56:46.760Z,15.23
2018-02-22T19:59:15.691Z,12.60
2018-02-22T20:01:43.854Z,16.30
2018-02-22T20:04:12.050Z,17.52
2018-02-22T20:06:40.217Z,18.83
2018-02-22T20:09:08.372Z,17.67
2018-02-22T20:11:36.540Z,15.48
2018-02-22T20:14:04.698Z,14.30
2018-02-22T20:16:32.863Z,15.45
2018-02-22T20:19:02.566Z,16.98
2018-02-22T20:21:31.525Z,16.02
2018-02-22T20:23:59.762Z,15.85
2018-02-22T20:26:28.028Z,15.50
2018-02-22T20:28:56.512Z,23.95
2018-02-22T20:31:24.665Z,21.45
2018-02-22T20:33:53.621Z,15.00
2018-02-22T20:36:21.826Z,15.23
2018-02-22T20:38:50.769Z,17.40
2018-02-22T20:41:18.932Z,29.42
2018-02-22T20:43:47.089Z,68.12
2018-02-22T20:46:15.282Z,23.55
2018-02-22T20:48:43.462Z,22.25
2018-02-22T20:51:11.873Z,17.67
2018-02-22T20:53:40.671Z,15.15
2018-02-22T20:56:15.431Z,19.33
2018-02-22T20:58:44.245Z,16.50
2018-02-22T21:01:12.528Z,14.80
2018-02-22T21:03:44.598Z,13.82
2018-02-22T21:06:16.230Z,17.30
2018-02-22T21:08:46.516Z,13.65
2018-02-22T21:11:18.288Z,18.58
2018-02-22T21:13:47.182Z,15.07
2018-02-22T21:16:15.760Z,19.37
2018-02-22T21:18:45.033Z,14.55
2018-02-22T21:21:13.297Z,18.17
2018-02-22T21:23:41.682Z,19.00
2018-02-22T21:26:11.041Z,20.52
2018-02-22T21:28:40.310Z,21.67
2018-02-22T21:31:08.510Z,15.25
2018-02-22T21:36:12.140Z,25.80
2018-02-22T21:38:41.978Z,15.93
2018-02-22T21:41:12.219Z,15.52
2018-02-22T21:43:40.414Z,19.50
2018-02-22T21:46:12.626Z,20.65
2018-02-22T21:48:41.653Z,16.45
2018-02-22T21:51:10.784Z,15.38
2018-02-22T21:53:39.260Z,15.23
2018-02-22T21:56:08.979Z,24.83
2018-02-22T21:58:37.946Z,16.62
2018-02-22T22:01:06.148Z,16.58
2018-02-22T22:03:34.318Z,16.02
2018-02-22T22:06:04.979Z,15.10
2018-02-22T22:08:33.775Z,16.40
2018-02-22T22:11:03.348Z,17.50
2018-02-22T22:13:32.311Z,21.60
2018-02-22T22:16:01.352Z,14.40
2018-02-22T22:18:30.531Z,18.12
2018-02-22T22:20:59.533Z,19.08
2018-02-22T22:23:27.741Z,16.25
2018-02-22T22:25:59.822Z,14.45
2018-02-22T22:28:28.063Z,19.73
2018-02-22T22:30:56.296Z,19.75
2018-02-22T22:33:24.971Z,21.52
2018-02-22T22:35:53.882Z,19.33
2018-02-22T22:38:22.810Z,14.52
2018-02-22T22:40:51.089Z,16.62
2018-02-22T22:43:20.206Z,14.80
2018-02-22T22:45:48.476Z,16.17
2018-02-22T22:48:16.635Z,17.12
2018-02-22T22:50:44.805Z,20.35
2018-02-22T22:53:12.988Z,15.00
2018-02-22T22:55:41.914Z,14.38
2018-02-22T22:58:10.890Z,17.12
2018-02-22T23:00:39.961Z,15.38
2018-02-22T23:03:09.912Z,26.35
2018-02-22T23:05:38.173Z,14.40
2018-02-22T23:08:08.264Z,16.58
2018-02-22T23:10:36.540Z,18.20
2018-02-22T23:13:05.505Z,20.27
2018-02-22T23:15:37.913Z,13.62
2018-02-22T23:18:06.982Z,15.48
2018-02-22T23:23:30.078Z,17.62
2018-02-22T23:26:00.558Z,16.42
2018-02-22T23:28:28.715Z,14.45
2018-02-22T23:30:56.867Z,16.92
2018-02-22T23:33:25.048Z,18.48
2018-02-22T23:35:53.525Z,16.77
2018-02-22T23:38:21.699Z,19.08
2018-02-22T23:41:05.500Z,13.80
2018-02-22T23:43:34.450Z,15.60
2018-02-22T23:46:02.633Z,13.77
2018-02-22T23:48:30.809Z,19.30
2018-02-22T23:50:58.973Z,15.90
2018-02-22T23:53:27.219Z,17.00
2018-02-22T23:55:55.563Z,18.52
2018-02-22T23:58:25.012Z,15.93
